createdAt,value
2018-01-22T00:01:49.870Z,19.90
2018-01-22T00:04:16.161Z,21.40
2018-01-22T00:06:43.204Z,20.83
2018-01-22T00:09:09.480Z,22.23
2018-01-22T00:11:35.808Z,21.10
2018-01-22T00:14:02.245Z,20.17
2018-01-22T00:16:28.573Z,21.73
2018-01-22T00:18:54.830Z,21.70
2018-01-22T00:21:21.193Z,20.80
2018-01-22T00:23:47.481Z,20.33
2018-01-22T00:26:14.584Z,19.47
2018-01-22T00:28:40.867Z,19.40
2018-01-22T00:31:07.155Z,19.67
2018-01-22T00:33:33.466Z,20.40
2018-01-22T00:36:00.464Z,20.17
2018-01-22T00:38:26.766Z,20.00
2018-01-22T00:40:53.070Z,17.77
2018-01-22T00:43:20.192Z,20.77
2018-01-22T00:45:46.461Z,19.23
2018-01-22T00:48:13.193Z,19.47
2018-01-22T00:50:40.293Z,18.80
2018-01-22T00:53:07.357Z,19.27
2018-01-22T00:55:33.671Z,20.17
2018-01-22T00:57:59.953Z,20.33
2018-01-22T01:00:26.246Z,20.13
2018-01-22T01:02:52.512Z,21.37
2018-01-22T01:05:18.963Z,20.07
2018-01-22T01:07:45.214Z,21.47
2018-01-22T01:10:11.494Z,20.30
2018-01-22T01:12:37.777Z,20.23
2018-01-22T01:15:04.318Z,19.90
2018-01-22T01:17:30.598Z,20.70
2018-01-22T01:19:56.882Z,19.07
2018-01-22T01:22:23.168Z,19.50
2018-01-22T01:24:49.468Z,17.20
2018-01-22T01:27:16.470Z,18.43
2018-01-22T01:29:42.774Z,19.60
2018-01-22T01:32:10.031Z,19.97
2018-01-22T01:34:36.391Z,20.13
2018-01-22T01:37:02.722Z,20.73
2018-01-22T01:39:29.767Z,20.10
2018-01-22T01:41:56.084Z,18.67
2018-01-22T01:44:22.377Z,19.97
2018-01-22T01:46:49.384Z,19.70
2018-01-22T01:49:16.082Z,18.40
2018-01-22T01:51:42.592Z,16.90
2018-01-22T01:54:08.871Z,14.70
2018-01-22T01:56:35.164Z,13.27
2018-01-22T01:59:02.061Z,14.10
2018-01-22T02:01:28.370Z,14.33
2018-01-22T02:03:54.585Z,13.80
2018-01-22T02:06:27.993Z,15.70
2018-01-22T02:08:54.254Z,15.00
2018-01-22T02:11:20.541Z,15.27
2018-01-22T02:13:46.776Z,16.70
2018-01-22T02:16:13.028Z,16.23
2018-01-22T02:18:39.303Z,16.93
2018-01-22T02:21:05.585Z,17.40
2018-01-22T02:23:31.846Z,17.83
2018-01-22T02:25:58.161Z,17.37
2018-01-22T02:28:25.163Z,19.53
2018-01-22T02:30:51.447Z,18.43
2018-01-22T02:33:17.730Z,17.90
2018-01-22T02:35:44.017Z,20.07
2018-01-22T02:38:10.321Z,20.03
2018-01-22T02:40:36.581Z,19.70
2018-01-22T02:43:02.861Z,18.20
2018-01-22T02:45:29.910Z,22.33
2018-01-22T02:47:56.204Z,20.10
2018-01-22T02:50:22.502Z,20.73
2018-01-22T02:52:49.533Z,21.00
2018-01-22T02:55:16.537Z,18.80
2018-01-22T02:57:42.859Z,20.40
2018-01-22T03:00:09.134Z,20.70
2018-01-22T03:02:36.167Z,19.10
2018-01-22T03:05:02.448Z,19.47
2018-01-22T03:07:28.777Z,22.53
2018-01-22T03:09:55.065Z,19.37
2018-01-22T03:12:29.239Z,20.33
2018-01-22T03:14:55.606Z,20.67
2018-01-22T03:17:22.634Z,22.20
2018-01-22T03:19:48.896Z,20.20
2018-01-22T03:22:15.877Z,19.60
2018-01-22T03:24:42.152Z,19.43
2018-01-22T03:27:08.428Z,19.60
2018-01-22T03:29:34.781Z,21.90
2018-01-22T03:32:01.077Z,21.83
2018-01-22T03:34:27.369Z,21.80
2018-01-22T03:36:53.687Z,22.63
2018-01-22T03:39:20.709Z,24.13
2018-01-22T03:41:47.050Z,22.70
2018-01-22T03:44:13.343Z,24.50
2018-01-22T03:46:39.605Z,24.00
2018-01-22T03:49:05.876Z,21.60
2018-01-22T03:51:32.155Z,22.90
2018-01-22T03:53:58.393Z,22.13
2018-01-22T03:56:31.710Z,23.33
2018-01-22T03:58:58.736Z,22.60
2018-01-22T04:01:25.020Z,21.70
2018-01-22T04:03:51.292Z,21.40
2018-01-22T04:06:17.611Z,20.43
2018-01-22T04:08:43.902Z,21.80
2018-01-22T04:11:10.914Z,21.10
2018-01-22T04:13:37.166Z,20.87
2018-01-22T04:16:03.510Z,21.33
2018-01-22T04:18:30.548Z,22.13
2018-01-22T04:20:57.652Z,23.70
2018-01-22T04:23:23.927Z,21.60
2018-01-22T04:25:50.952Z,22.07
2018-01-22T04:28:17.214Z,21.90
2018-01-22T04:30:43.484Z,22.77
2018-01-22T04:33:09.771Z,20.90
2018-01-22T04:35:36.089Z,24.03
2018-01-22T04:38:03.166Z,22.70
2018-01-22T04:40:29.401Z,21.63
2018-01-22T04:42:55.674Z,21.90
2018-01-22T04:45:22.692Z,22.10
2018-01-22T04:47:48.958Z,21.70
2018-01-22T04:50:15.960Z,24.03
2018-01-22T04:52:42.288Z,21.60
2018-01-22T04:55:08.551Z,22.80
2018-01-22T04:57:34.827Z,25.40
2018-01-22T05:00:01.096Z,23.83
2018-01-22T05:02:27.370Z,24.27
2018-01-22T05:04:54.382Z,23.37
2018-01-22T05:07:20.655Z,25.73
2018-01-22T05:09:46.944Z,25.33
2018-01-22T05:12:13.180Z,25.90
2018-01-22T05:14:40.221Z,27.97
2018-01-22T05:17:06.446Z,26.37
2018-01-22T05:19:32.681Z,24.77
2018-01-22T05:21:58.958Z,26.33
2018-01-22T05:24:25.227Z,26.13
2018-01-22T05:26:51.473Z,25.80
2018-01-22T05:29:18.498Z,26.33
2018-01-22T05:31:44.799Z,26.97
2018-01-22T05:34:11.086Z,30.37
2018-01-22T05:36:38.155Z,30.00
2018-01-22T05:39:04.516Z,29.50
2018-01-22T05:41:30.842Z,29.60
2018-01-22T05:43:57.237Z,29.57
2018-01-22T05:46:23.625Z,28.50
2018-01-22T05:48:49.965Z,30.07
2018-01-22T05:51:16.227Z,27.67
2018-01-22T05:53:42.492Z,27.50
2018-01-22T05:56:08.787Z,27.67
2018-01-22T05:58:35.049Z,29.03
2018-01-22T06:01:01.333Z,28.83
2018-01-22T06:03:28.355Z,28.00
2018-01-22T06:05:55.453Z,28.47
2018-01-22T06:08:21.700Z,25.97
2018-01-22T06:10:47.977Z,27.30
2018-01-22T06:13:15.202Z,26.87
2018-01-22T06:15:42.262Z,27.40
2018-01-22T06:18:08.583Z,27.20
2018-01-22T06:20:35.647Z,26.37
2018-01-22T06:23:02.660Z,26.20
2018-01-22T06:25:28.906Z,26.03
2018-01-22T06:27:55.214Z,27.47
2018-01-22T06:30:21.511Z,28.97
2018-01-22T06:32:47.777Z,27.50
2018-01-22T06:35:14.099Z,25.33
2018-01-22T06:37:40.402Z,24.73
2018-01-22T06:40:06.658Z,26.03
2018-01-22T06:42:32.923Z,24.17
2018-01-22T06:44:59.169Z,23.60
2018-01-22T06:47:25.483Z,24.33
2018-01-22T06:49:52.550Z,23.70
2018-01-22T06:52:18.905Z,24.43
2018-01-22T06:54:45.129Z,23.73
2018-01-22T06:57:12.332Z,23.33
2018-01-22T06:59:38.786Z,24.23
2018-01-22T07:02:05.047Z,21.50
2018-01-22T07:04:31.358Z,22.00
2018-01-22T07:06:57.629Z,24.57
2018-01-22T07:09:23.887Z,24.43
2018-01-22T07:11:50.884Z,25.73
2018-01-22T07:14:17.266Z,24.93
2018-01-22T07:16:43.561Z,24.33
2018-01-22T07:19:09.919Z,22.13
2018-01-22T07:21:36.200Z,23.47
2018-01-22T07:24:02.570Z,24.93
2018-01-22T07:26:29.595Z,22.73
2018-01-22T07:28:56.702Z,22.53
2018-01-22T07:31:23.043Z,23.10
2018-01-22T07:33:49.318Z,22.10
2018-01-22T07:36:16.352Z,23.53
2018-01-22T07:38:42.664Z,22.77
2018-01-22T07:41:08.989Z,24.43
2018-01-22T07:43:35.214Z,22.77
2018-01-22T07:46:01.473Z,23.23
2018-01-22T07:48:27.701Z,22.47
2018-01-22T07:50:54.014Z,22.97
2018-01-22T07:53:20.282Z,23.57
2018-01-22T07:55:47.306Z,22.27
2018-01-22T07:58:13.562Z,21.77
2018-01-22T08:00:39.997Z,24.33
2018-01-22T08:03:06.399Z,23.63
2018-01-22T08:05:32.697Z,22.60
2018-01-22T08:07:58.936Z,24.00
2018-01-22T08:10:25.828Z,23.03
2018-01-22T08:12:52.856Z,22.23
2018-01-22T08:15:19.126Z,21.33
2018-01-22T08:17:45.409Z,22.03
2018-01-22T08:20:11.695Z,23.07
2018-01-22T08:22:38.058Z,23.23
2018-01-22T08:25:04.326Z,24.17
2018-01-22T08:27:31.390Z,21.97
2018-01-22T08:29:57.645Z,22.60
2018-01-22T08:32:24.326Z,22.87
2018-01-22T08:34:51.344Z,24.47
2018-01-22T08:37:18.373Z,22.00
2018-01-22T08:39:44.689Z,22.03
2018-01-22T08:42:10.957Z,21.37
2018-01-22T08:44:37.177Z,22.87
2018-01-22T08:47:03.505Z,21.70
2018-01-22T08:49:29.715Z,21.83
2018-01-22T08:51:56.034Z,20.90
2018-01-22T08:54:23.265Z,20.43
2018-01-22T08:56:50.383Z,21.57
2018-01-22T08:59:16.697Z,20.50
2018-01-22T09:01:48.984Z,20.43
2018-01-22T09:04:16.879Z,21.27
2018-01-22T09:06:43.895Z,20.43
2018-01-22T09:09:10.238Z,20.33
2018-01-22T09:11:37.238Z,19.27
2018-01-22T09:14:03.527Z,20.43
2018-01-22T09:16:29.801Z,18.80
2018-01-22T09:18:56.117Z,20.80
2018-01-22T09:21:23.234Z,19.53
2018-01-22T09:23:49.580Z,19.70
2018-01-22T09:26:16.597Z,20.77
2018-01-22T09:28:42.862Z,20.77
2018-01-22T09:31:09.125Z,19.67
2018-01-22T09:33:35.380Z,20.67
2018-01-22T09:36:01.648Z,19.63
2018-01-22T09:38:27.958Z,20.70
2018-01-22T09:40:54.986Z,19.60
2018-01-22T09:43:21.262Z,20.30
2018-01-22T09:45:47.673Z,19.53
2018-01-22T09:48:14.017Z,19.37
2018-01-22T09:50:40.417Z,19.23
2018-01-22T09:53:07.481Z,20.60
2018-01-22T09:55:33.890Z,20.87
2018-01-22T09:58:00.896Z,19.13
2018-01-22T10:00:27.985Z,19.00
2018-01-22T10:02:54.289Z,19.13
2018-01-22T10:05:20.517Z,18.60
2018-01-22T10:07:46.981Z,19.80
2018-01-22T10:10:13.242Z,17.30
2018-01-22T10:12:39.537Z,19.57
2018-01-22T10:15:14.529Z,20.10
2018-01-22T10:17:40.992Z,18.10
2018-01-22T10:20:07.336Z,20.47
2018-01-22T10:22:33.830Z,19.07
2018-01-22T10:25:00.377Z,19.47
2018-01-22T10:27:26.669Z,19.10
2018-01-22T10:29:52.945Z,19.27
2018-01-22T10:32:19.966Z,19.17
2018-01-22T10:34:46.304Z,19.00
2018-01-22T10:37:15.525Z,18.13
2018-01-22T10:39:43.126Z,18.80
2018-01-22T10:42:09.402Z,18.40
2018-01-22T10:44:35.697Z,18.50
2018-01-22T10:47:03.943Z,17.60
2018-01-22T10:49:32.229Z,19.30
2018-01-22T10:51:58.496Z,17.83
2018-01-22T10:54:24.794Z,18.90
2018-01-22T10:56:51.177Z,18.50
2018-01-22T10:59:17.768Z,18.97
2018-01-22T11:01:44.011Z,19.80
2018-01-22T11:04:10.319Z,19.30
2018-01-22T11:06:41.058Z,20.40
2018-01-22T11:09:07.651Z,19.53
2018-01-22T11:11:34.702Z,20.07
2018-01-22T11:14:01.746Z,20.20
2018-01-22T11:16:27.990Z,19.90
2018-01-22T11:18:55.122Z,17.67
2018-01-22T11:21:22.620Z,20.60
2018-01-22T11:23:49.090Z,20.10
2018-01-22T11:26:15.422Z,18.43
2018-01-22T11:28:41.739Z,19.60
2018-01-22T11:31:07.990Z,19.47
2018-01-22T11:33:35.307Z,19.80
2018-01-22T11:36:03.434Z,19.60
2018-01-22T11:38:30.552Z,19.70
2018-01-22T11:40:56.870Z,18.60
2018-01-22T11:43:23.133Z,19.57
2018-01-22T11:45:50.102Z,18.87
2018-01-22T11:48:16.371Z,18.47
2018-01-22T11:50:43.426Z,19.63
2018-01-22T11:53:09.678Z,16.90
2018-01-22T11:55:35.998Z,20.20
2018-01-22T11:58:02.447Z,19.00
2018-01-22T12:00:28.803Z,18.00
2018-01-22T12:03:02.547Z,18.40
2018-01-22T12:05:32.097Z,18.00
2018-01-22T12:07:58.750Z,19.40
2018-01-22T12:10:25.090Z,18.40
2018-01-22T12:12:51.427Z,19.77
2018-01-22T12:15:18.196Z,19.63
2018-01-22T12:17:44.628Z,19.43
2018-01-22T12:20:11.005Z,19.57
2018-01-22T12:22:39.144Z,19.60
2018-01-22T12:25:06.899Z,17.80
2018-01-22T12:27:33.295Z,19.83
2018-01-22T12:29:59.809Z,20.50
2018-01-22T12:32:27.824Z,17.53
2018-01-22T12:34:54.148Z,19.67
2018-01-22T12:37:20.687Z,19.57
2018-01-22T12:39:47.183Z,19.63
2018-01-22T12:42:13.547Z,19.00
2018-01-22T12:44:39.970Z,18.73
2018-01-22T12:47:06.210Z,18.13
2018-01-22T12:49:32.499Z,18.30
2018-01-22T12:51:59.546Z,18.60
2018-01-22T12:54:25.829Z,17.03
2018-01-22T12:56:52.066Z,19.20
2018-01-22T12:59:18.349Z,19.67
2018-01-22T13:01:44.577Z,17.97
2018-01-22T13:04:10.837Z,18.97
2018-01-22T13:06:37.674Z,18.77
2018-01-22T13:09:03.979Z,17.77
2018-01-22T13:11:30.209Z,17.87
2018-01-22T13:13:56.484Z,20.13
2018-01-22T13:16:22.787Z,17.70
2018-01-22T13:18:49.074Z,17.40
2018-01-22T13:21:15.404Z,16.77
2018-01-22T13:23:41.688Z,17.57
2018-01-22T13:26:08.116Z,18.90
2018-01-22T13:28:34.419Z,18.00
2018-01-22T13:31:00.737Z,19.57
2018-01-22T13:33:26.965Z,17.90
2018-01-22T13:35:53.208Z,17.50
2018-01-22T13:38:19.454Z,17.57
2018-01-22T13:40:52.681Z,17.77
2018-01-22T13:43:18.954Z,16.37
2018-01-22T13:45:45.330Z,16.20
2018-01-22T13:48:11.610Z,17.70
2018-01-22T13:50:37.909Z,16.43
2018-01-22T13:53:04.425Z,16.90
2018-01-22T13:55:30.673Z,17.20
2018-01-22T13:57:57.641Z,17.70
2018-01-22T14:00:23.870Z,17.47
2018-01-22T14:02:50.127Z,17.70
2018-01-22T14:05:16.418Z,17.73
2018-01-22T14:07:42.864Z,16.40
2018-01-22T14:10:10.135Z,16.30
2018-01-22T14:12:36.476Z,15.87
2018-01-22T14:15:02.791Z,15.27
2018-01-22T14:17:29.094Z,15.10
2018-01-22T14:19:56.068Z,14.23
2018-01-22T14:22:22.430Z,14.53
2018-01-22T14:24:48.717Z,16.90
2018-01-22T14:27:16.447Z,14.73
2018-01-22T14:29:43.486Z,15.67
2018-01-22T14:32:10.467Z,14.77
2018-01-22T14:34:36.786Z,14.13
2018-01-22T14:37:03.042Z,14.07
2018-01-22T14:39:29.315Z,14.97
2018-01-22T14:41:56.646Z,15.37
2018-01-22T14:44:23.680Z,15.80
2018-01-22T14:46:49.991Z,15.80
2018-01-22T14:49:16.223Z,14.73
2018-01-22T14:51:42.479Z,14.80
2018-01-22T14:54:08.754Z,14.07
2018-01-22T14:56:35.967Z,13.77
2018-01-22T14:59:03.001Z,15.03
2018-01-22T15:01:29.284Z,14.97
2018-01-22T15:03:55.563Z,14.63
2018-01-22T15:06:21.794Z,15.20
2018-01-22T15:08:48.076Z,14.40
2018-01-22T15:11:15.454Z,13.43
2018-01-22T15:13:41.882Z,12.63
2018-01-22T15:16:08.781Z,13.03
2018-01-22T15:18:35.824Z,14.10
2018-01-22T15:21:03.052Z,13.80
2018-01-22T15:23:29.552Z,13.60
2018-01-22T15:25:56.771Z,12.90
2018-01-22T15:28:23.407Z,13.33
2018-01-22T15:30:50.081Z,13.20
2018-01-22T15:33:17.132Z,12.00
2018-01-22T15:38:22.059Z,12.20
2018-01-22T15:40:49.620Z,13.13
2018-01-22T15:43:19.391Z,12.97
2018-01-22T15:45:45.989Z,12.77
2018-01-22T15:48:12.222Z,13.03
2018-01-22T15:50:48.445Z,13.17
2018-01-22T15:53:14.698Z,13.33
2018-01-22T15:55:40.982Z,12.13
2018-01-22T15:58:08.152Z,12.30
2018-01-22T16:00:34.488Z,11.27
2018-01-22T16:03:03.489Z,12.50
2018-01-22T16:05:31.566Z,13.37
2018-01-22T16:07:58.220Z,12.00
2018-01-22T16:10:25.477Z,12.03
2018-01-22T16:12:51.934Z,13.10
2018-01-22T16:15:18.189Z,13.07
2018-01-22T16:17:45.217Z,12.13
2018-01-22T16:20:11.483Z,12.90
2018-01-22T16:22:38.242Z,12.77
2018-01-22T16:25:04.609Z,13.10
2018-01-22T16:27:31.567Z,13.67
2018-01-22T16:29:58.169Z,12.60
2018-01-22T16:32:24.426Z,13.30
2018-01-22T16:34:55.438Z,12.20
2018-01-22T16:37:22.521Z,12.60
2018-01-22T16:39:49.666Z,13.87
2018-01-22T16:42:16.020Z,11.73
2018-01-22T16:44:42.356Z,12.63
2018-01-22T16:47:14.702Z,12.73
2018-01-22T16:49:41.792Z,11.80
2018-01-22T16:52:08.070Z,12.70
2018-01-22T16:54:38.196Z,13.47
2018-01-22T16:57:07.832Z,13.43
2018-01-22T16:59:34.238Z,13.70
2018-01-22T17:02:01.306Z,13.63
2018-01-22T17:04:27.589Z,12.80
2018-01-22T17:06:53.891Z,13.40
2018-01-22T17:09:20.241Z,13.37
2018-01-22T17:11:53.743Z,15.40
2018-01-22T17:14:20.237Z,14.17
2018-01-22T17:16:46.650Z,14.37
2018-01-22T17:19:12.965Z,15.70
2018-01-22T17:21:39.986Z,14.33
2018-01-22T17:24:06.330Z,13.93
2018-01-22T17:26:32.638Z,15.10
2018-01-22T17:28:58.980Z,14.93
2018-01-22T17:31:25.346Z,15.07
2018-01-22T17:33:52.378Z,16.00
2018-01-22T17:36:20.368Z,15.10
2018-01-22T17:38:46.743Z,14.83
2018-01-22T17:41:13.009Z,16.40
2018-01-22T17:43:40.076Z,16.50
2018-01-22T17:46:06.482Z,16.80
2018-01-22T17:48:32.761Z,16.93
2018-01-22T17:50:59.054Z,16.10
2018-01-22T17:53:25.483Z,17.30
2018-01-22T17:55:52.497Z,16.10
2018-01-22T17:58:18.817Z,17.50
2018-01-22T18:00:45.117Z,18.60
2018-01-22T18:03:11.449Z,17.77
2018-01-22T18:05:37.765Z,18.00
2018-01-22T18:08:04.049Z,18.50
2018-01-22T18:10:30.329Z,18.30
2018-01-22T18:12:56.662Z,19.30
2018-01-22T18:15:22.949Z,19.13
2018-01-22T18:17:49.202Z,39.70
2018-01-22T18:20:16.219Z,20.30
2018-01-22T18:22:42.578Z,20.00
2018-01-22T18:25:09.599Z,20.97
2018-01-22T18:27:35.904Z,22.73
2018-01-22T18:30:02.234Z,23.47
2018-01-22T18:32:28.536Z,22.80
2018-01-22T18:34:54.830Z,23.47
2018-01-22T18:37:21.877Z,22.63
2018-01-22T18:39:48.946Z,24.00
2018-01-22T18:42:15.249Z,19.57
2018-01-22T18:44:42.602Z,22.77
2018-01-22T18:47:09.648Z,24.13
2018-01-22T18:49:35.906Z,24.27
2018-01-22T18:52:02.948Z,21.90
2018-01-22T18:54:31.591Z,23.70
2018-01-22T18:57:00.682Z,23.63
2018-01-22T18:59:26.996Z,23.20
2018-01-22T19:01:55.762Z,22.73
2018-01-22T19:04:22.462Z,26.60
2018-01-22T19:06:48.849Z,25.17
2018-01-22T19:09:17.584Z,23.43
2018-01-22T19:11:45.053Z,27.13
2018-01-22T19:14:18.585Z,23.53
2018-01-22T19:16:52.343Z,23.23
2018-01-22T19:19:18.598Z,24.10
2018-01-22T19:21:44.841Z,25.43
2018-01-22T19:24:11.161Z,24.50
2018-01-22T19:26:37.484Z,23.83
2018-01-22T19:29:04.871Z,24.80
2018-01-22T19:31:32.235Z,24.80
2018-01-22T19:34:02.425Z,24.47
2018-01-22T19:36:33.062Z,22.40
2018-01-22T19:39:00.424Z,24.50
2018-01-22T19:41:26.846Z,23.67
2018-01-22T19:43:53.219Z,24.67
2018-01-22T19:46:19.569Z,24.60
2018-01-22T19:48:46.234Z,23.80
2018-01-22T19:51:15.990Z,24.73
2018-01-22T19:53:45.192Z,24.27
2018-01-22T19:58:45.764Z,24.70
2018-01-22T20:01:21.126Z,24.00
2018-01-22T20:03:47.514Z,22.33
2018-01-22T20:06:13.795Z,23.80
2018-01-22T20:08:40.083Z,23.00
2018-01-22T20:11:06.461Z,24.47
2018-01-22T20:13:32.798Z,24.70
2018-01-22T20:15:59.131Z,24.10
2018-01-22T20:18:27.064Z,23.70
2018-01-22T20:20:53.485Z,23.67
2018-01-22T20:23:21.007Z,25.10
2018-01-22T20:25:49.623Z,24.73
2018-01-22T20:28:16.828Z,25.60
2018-01-22T20:30:43.137Z,24.00
2018-01-22T20:33:10.747Z,26.10
2018-01-22T20:35:38.365Z,25.70
2018-01-22T20:38:04.694Z,25.07
2018-01-22T20:40:30.955Z,25.07
2018-01-22T20:42:57.291Z,24.23
2018-01-22T20:45:23.612Z,25.27
2018-01-22T20:47:49.933Z,24.80
2018-01-22T20:50:16.243Z,25.67
2018-01-22T20:52:42.548Z,24.87
2018-01-22T20:55:09.524Z,24.57
2018-01-22T20:57:35.791Z,23.60
2018-01-22T21:00:02.105Z,23.53
2018-01-22T21:02:28.512Z,25.47
2018-01-22T21:04:54.810Z,22.90
2018-01-22T21:07:21.835Z,24.97
2018-01-22T21:09:48.200Z,24.63
2018-01-22T21:12:14.490Z,25.57
2018-01-22T21:14:40.774Z,24.30
2018-01-22T21:17:07.060Z,25.43
2018-01-22T21:19:34.122Z,24.70
2018-01-22T21:22:01.453Z,26.50
2018-01-22T21:24:28.495Z,24.00
2018-01-22T21:26:54.869Z,23.27
2018-01-22T21:29:21.639Z,24.20
2018-01-22T21:31:47.985Z,22.83
2018-01-22T21:34:14.442Z,22.80
2018-01-22T21:36:41.560Z,24.00
2018-01-22T21:39:07.908Z,24.77
2018-01-22T21:41:34.262Z,26.73
2018-01-22T21:44:01.339Z,24.67
2018-01-22T21:46:27.818Z,24.30
2018-01-22T21:48:54.160Z,24.90
2018-01-22T21:51:21.540Z,24.93
2018-01-22T21:53:48.422Z,24.23
2018-01-22T21:56:16.146Z,23.47
2018-01-22T21:58:42.386Z,25.17
2018-01-22T22:01:08.687Z,24.37
2018-01-22T22:03:35.148Z,24.20
2018-01-22T22:06:02.028Z,24.70
2018-01-22T22:08:29.341Z,25.50
2018-01-22T22:10:55.785Z,23.57
2018-01-22T22:13:22.237Z,26.07
2018-01-22T22:15:48.640Z,26.90
2018-01-22T22:18:15.014Z,26.60
2018-01-22T22:20:41.413Z,24.47
2018-01-22T22:23:08.358Z,25.47
2018-01-22T22:25:35.428Z,28.20
2018-01-22T22:28:02.429Z,26.07
2018-01-22T22:30:28.772Z,27.20
2018-01-22T22:32:56.167Z,26.07
2018-01-22T22:35:22.497Z,29.50
2018-01-22T22:37:48.781Z,26.43
2018-01-22T22:40:17.427Z,29.90
2018-01-22T22:42:43.737Z,28.50
2018-01-22T22:45:10.056Z,26.70
2018-01-22T22:47:45.056Z,28.97
2018-01-22T22:50:12.593Z,29.23
2018-01-22T22:52:38.910Z,30.40
2018-01-22T22:55:05.478Z,28.53
2018-01-22T22:57:33.436Z,29.27
2018-01-22T23:00:00.410Z,46.60
2018-01-22T23:02:26.712Z,29.80
2018-01-22T23:04:52.939Z,29.50
2018-01-22T23:07:21.015Z,29.10
2018-01-22T23:09:53.320Z,28.00
2018-01-22T23:12:19.540Z,29.43
2018-01-22T23:14:45.835Z,28.73
2018-01-22T23:17:12.858Z,31.80
2018-01-22T23:19:39.190Z,28.40
2018-01-22T23:22:05.437Z,30.37
2018-01-22T23:24:32.523Z,31.27
2018-01-22T23:26:58.805Z,31.23
2018-01-22T23:29:25.998Z,28.80
2018-01-22T23:31:52.288Z,30.10
2018-01-22T23:34:20.385Z,29.67
2018-01-22T23:36:46.710Z,28.83
2018-01-22T23:39:13.670Z,27.10
2018-01-22T23:41:40.123Z,29.37
2018-01-22T23:44:06.426Z,28.33
2018-01-22T23:46:32.670Z,28.00
2018-01-22T23:48:58.924Z,31.13
2018-01-22T23:51:25.297Z,29.47
2018-01-22T23:53:52.275Z,31.37
2018-01-22T23:56:18.561Z,29.60
2018-01-22T23:58:45.523Z,31.50
